createdAt,value
2018-01-20T00:00:56.819Z,33.83
2018-01-20T00:03:32.029Z,35.47
2018-01-20T00:06:02.297Z,32.73
2018-01-20T00:08:33.292Z,36.45
2018-01-20T00:11:14.536Z,32.95
2018-01-20T00:13:46.173Z,33.23
2018-01-20T00:16:16.368Z,31.30
2018-01-20T00:18:47.413Z,30.55
2018-01-20T00:21:18.341Z,31.63
2018-01-20T00:23:49.250Z,30.02
2018-01-20T00:26:23.533Z,30.07
2018-01-20T00:28:53.700Z,29.27
2018-01-20T00:31:24.187Z,29.57
2018-01-20T00:33:54.639Z,31.10
2018-01-20T00:36:25.050Z,31.47
2018-01-20T00:38:55.276Z,31.02
2018-01-20T00:41:25.749Z,29.80
2018-01-20T00:43:56.727Z,30.83
2018-01-20T00:46:26.900Z,31.27
2018-01-20T00:48:57.288Z,30.53
2018-01-20T00:51:27.416Z,32.55
2018-01-20T00:53:57.645Z,30.58
2018-01-20T00:56:27.841Z,30.17
2018-01-20T00:58:58.109Z,30.52
2018-01-20T01:01:29.321Z,31.40
2018-01-20T01:04:00.541Z,29.52
2018-01-20T01:06:30.755Z,31.15
2018-01-20T01:09:01.057Z,32.63
2018-01-20T01:11:31.565Z,32.57
2018-01-20T01:14:01.797Z,33.70
2018-01-20T01:16:32.758Z,33.07
2018-01-20T01:19:02.968Z,34.13
2018-01-20T01:21:33.832Z,32.28
2018-01-20T01:24:04.329Z,29.40
2018-01-20T01:26:34.732Z,28.87
2018-01-20T01:29:04.889Z,28.37
2018-01-20T01:31:35.212Z,28.10
2018-01-20T01:34:05.892Z,28.70
2018-01-20T01:36:36.615Z,26.70
2018-01-20T01:39:06.846Z,27.80
2018-01-20T01:41:37.360Z,28.30
2018-01-20T01:44:07.916Z,30.08
2018-01-20T01:46:38.961Z,29.57
2018-01-20T01:49:09.992Z,29.87
2018-01-20T01:51:40.663Z,30.52
2018-01-20T01:54:11.342Z,30.80
2018-01-20T01:56:42.534Z,31.23
2018-01-20T01:59:13.311Z,32.87
2018-01-20T02:01:43.959Z,32.77
2018-01-20T02:04:14.330Z,33.90
2018-01-20T02:06:45.230Z,35.00
2018-01-20T02:09:16.482Z,34.97
2018-01-20T02:11:46.906Z,35.65
2018-01-20T02:14:17.382Z,36.90
2018-01-20T02:16:47.787Z,38.93
2018-01-20T02:19:18.392Z,37.88
2018-01-20T02:21:49.051Z,40.67
2018-01-20T02:24:19.500Z,43.08
2018-01-20T02:26:50.700Z,42.15
2018-01-20T02:29:21.094Z,42.97
2018-01-20T02:31:51.456Z,42.50
2018-01-20T02:34:22.307Z,42.03
2018-01-20T02:36:52.906Z,42.37
2018-01-20T02:39:23.295Z,44.87
2018-01-20T02:41:55.219Z,42.90
2018-01-20T02:44:25.457Z,41.33
2018-01-20T02:46:55.781Z,42.53
2018-01-20T02:49:26.681Z,43.00
2018-01-20T02:51:57.059Z,45.33
2018-01-20T02:54:27.377Z,42.03
2018-01-20T02:56:57.930Z,41.10
2018-01-20T02:59:28.444Z,42.65
2018-01-20T03:01:58.719Z,42.00
2018-01-20T03:04:29.456Z,42.85
2018-01-20T03:07:00.100Z,42.77
2018-01-20T03:09:30.512Z,43.37
2018-01-20T03:12:01.241Z,41.90
2018-01-20T03:14:31.510Z,41.33
2018-01-20T03:17:01.665Z,40.83
2018-01-20T03:19:32.693Z,43.33
2018-01-20T03:22:03.641Z,41.97
2018-01-20T03:24:33.869Z,42.00
2018-01-20T03:27:04.528Z,41.93
2018-01-20T03:29:34.721Z,44.30
2018-01-20T03:32:04.864Z,44.43
2018-01-20T03:34:35.761Z,42.87
2018-01-20T03:37:10.485Z,44.53
2018-01-20T03:39:42.076Z,43.07
2018-01-20T03:42:12.664Z,43.77
2018-01-20T03:44:43.601Z,42.72
2018-01-20T03:47:13.958Z,45.30
2018-01-20T03:49:44.290Z,45.43
2018-01-20T03:52:14.946Z,45.10
2018-01-20T03:54:45.293Z,42.70
2018-01-20T03:57:16.231Z,45.80
2018-01-20T03:59:47.862Z,43.43
2018-01-20T04:02:18.362Z,44.53
2018-01-20T04:04:48.801Z,45.67
2018-01-20T04:07:19.263Z,43.58
2018-01-20T04:09:50.200Z,43.97
2018-01-20T04:12:20.752Z,44.57
2018-01-20T04:14:51.238Z,46.03
2018-01-20T04:17:21.694Z,46.07
2018-01-20T04:19:52.657Z,43.87
2018-01-20T04:22:22.878Z,43.33
2018-01-20T04:24:53.384Z,44.30
2018-01-20T04:27:24.121Z,44.67
2018-01-20T04:29:54.463Z,44.73
2018-01-20T04:32:25.343Z,44.90
2018-01-20T04:34:56.106Z,43.03
2018-01-20T04:37:26.675Z,42.75
2018-01-20T04:39:56.937Z,41.47
2018-01-20T04:42:27.557Z,41.00
2018-01-20T04:44:57.739Z,39.63
2018-01-20T04:47:27.962Z,39.80
2018-01-20T04:49:58.910Z,40.37
2018-01-20T04:52:29.101Z,39.07
2018-01-20T04:54:59.669Z,38.57
2018-01-20T04:57:30.304Z,39.83
2018-01-20T05:00:00.511Z,40.53
2018-01-20T05:02:31.964Z,39.00
2018-01-20T05:05:03.051Z,40.23
2018-01-20T05:07:34.064Z,39.30
2018-01-20T05:10:05.024Z,40.23
2018-01-20T05:12:42.925Z,41.87
2018-01-20T05:15:13.537Z,39.77
2018-01-20T05:17:43.912Z,39.50
2018-01-20T05:20:15.336Z,40.13
2018-01-20T05:22:45.603Z,38.67
2018-01-20T05:25:15.836Z,38.80
2018-01-20T05:27:47.376Z,37.03
2018-01-20T05:30:17.643Z,37.67
2018-01-20T05:32:48.727Z,37.37
2018-01-20T05:35:19.436Z,37.08
2018-01-20T05:37:49.787Z,36.17
2018-01-20T05:40:21.248Z,35.88
2018-01-20T05:42:52.293Z,33.92
2018-01-20T05:45:24.646Z,33.65
2018-01-20T05:47:56.889Z,33.67
2018-01-20T05:50:27.388Z,34.37
2018-01-20T05:52:57.622Z,32.23
2018-01-20T05:55:28.692Z,32.80
2018-01-20T05:57:59.139Z,30.97
2018-01-20T06:00:29.557Z,33.53
2018-01-20T06:03:00.015Z,31.05
2018-01-20T06:05:30.210Z,32.73
2018-01-20T06:08:00.513Z,32.67
2018-01-20T06:10:30.845Z,34.20
2018-01-20T06:13:01.225Z,33.97
2018-01-20T06:15:31.801Z,34.93
2018-01-20T06:18:02.107Z,35.77
2018-01-20T06:20:32.330Z,37.25
2018-01-20T06:23:02.617Z,37.20
2018-01-20T06:25:33.774Z,37.13
2018-01-20T06:28:04.285Z,37.05
2018-01-20T06:30:34.658Z,38.60
2018-01-20T06:33:05.249Z,38.03
2018-01-20T06:35:37.209Z,38.60
2018-01-20T06:38:07.385Z,38.27
2018-01-20T06:40:39.873Z,40.70
2018-01-20T06:43:11.477Z,38.13
2018-01-20T06:45:41.844Z,38.85
2018-01-20T06:48:12.477Z,38.87
2018-01-20T06:50:43.144Z,39.42
2018-01-20T06:53:13.581Z,37.37
2018-01-20T06:55:44.123Z,38.08
2018-01-20T06:58:14.771Z,39.77
2018-01-20T07:00:45.868Z,37.73
2018-01-20T07:03:16.134Z,40.63
2018-01-20T07:05:46.378Z,39.13
2018-01-20T07:08:16.604Z,38.67
2018-01-20T07:10:48.095Z,40.63
2018-01-20T07:13:47.191Z,41.17
2018-01-20T07:16:30.753Z,39.53
2018-01-20T07:19:01.171Z,41.03
2018-01-20T07:21:33.036Z,40.17
2018-01-20T07:24:06.057Z,38.30
2018-01-20T07:26:43.441Z,42.03
2018-01-20T07:29:15.200Z,39.67
2018-01-20T07:31:46.864Z,38.90
2018-01-20T07:34:20.461Z,39.37
2018-01-20T07:36:51.267Z,39.92
2018-01-20T07:39:23.176Z,40.13
2018-01-20T07:41:54.716Z,40.03
2018-01-20T07:44:24.917Z,40.37
2018-01-20T07:47:03.117Z,39.77
2018-01-20T07:49:33.717Z,38.90
2018-01-20T07:52:04.650Z,40.30
2018-01-20T07:54:35.134Z,38.60
2018-01-20T07:57:08.931Z,38.07
2018-01-20T07:59:45.113Z,37.73
2018-01-20T08:02:16.912Z,39.60
2018-01-20T08:04:49.234Z,41.00
2018-01-20T08:07:20.277Z,39.80
2018-01-20T08:09:51.872Z,38.40
2018-01-20T08:12:22.178Z,40.50
2018-01-20T08:14:52.696Z,38.87
2018-01-20T08:17:22.956Z,38.83
2018-01-20T08:19:54.243Z,38.93
2018-01-20T08:22:25.120Z,40.53
2018-01-20T08:24:55.417Z,39.63
2018-01-20T08:27:25.888Z,38.17
2018-01-20T08:29:56.056Z,38.93
2018-01-20T08:32:26.506Z,37.67
2018-01-20T08:34:56.736Z,38.77
2018-01-20T08:37:27.182Z,38.63
2018-01-20T08:39:57.705Z,37.50
2018-01-20T08:42:28.513Z,38.20
2018-01-20T08:44:58.990Z,36.00
2018-01-20T08:47:30.327Z,39.27
2018-01-20T08:50:01.808Z,38.17
2018-01-20T08:52:32.080Z,35.90
2018-01-20T08:55:02.475Z,38.20
2018-01-20T08:57:33.565Z,38.50
2018-01-20T09:00:04.032Z,37.03
2018-01-20T09:02:34.465Z,36.73
2018-01-20T09:05:05.092Z,37.87
2018-01-20T09:07:36.073Z,37.03
2018-01-20T09:10:06.326Z,37.53
2018-01-20T09:12:36.987Z,37.03
2018-01-20T09:15:07.246Z,37.10
2018-01-20T09:17:37.473Z,36.90
2018-01-20T09:20:08.092Z,36.43
2018-01-20T09:22:38.352Z,36.63
2018-01-20T09:25:09.576Z,34.77
2018-01-20T09:27:40.220Z,36.37
2018-01-20T09:30:10.535Z,35.03
2018-01-20T09:32:42.494Z,34.73
2018-01-20T09:35:12.629Z,28.87
2018-01-20T09:37:43.129Z,29.13
2018-01-20T09:40:13.757Z,28.60
2018-01-20T09:42:45.431Z,28.07
2018-01-20T09:45:15.848Z,25.90
2018-01-20T09:47:47.086Z,25.47
2018-01-20T09:50:17.743Z,24.33
2018-01-20T09:52:48.860Z,24.13
2018-01-20T09:55:19.281Z,23.70
2018-01-20T09:57:50.161Z,22.40
2018-01-20T10:00:21.292Z,24.00
2018-01-20T10:02:51.796Z,24.23
2018-01-20T10:05:23.536Z,25.13
2018-01-20T10:07:54.075Z,24.17
2018-01-20T10:10:25.206Z,24.80
2018-01-20T10:12:55.980Z,24.43
2018-01-20T10:15:28.951Z,22.93
2018-01-20T10:18:00.693Z,23.63
2018-01-20T10:20:31.260Z,23.27
2018-01-20T10:23:04.120Z,23.67
2018-01-20T10:25:37.583Z,22.30
2018-01-20T10:28:09.958Z,23.00
2018-01-20T10:30:40.833Z,23.30
2018-01-20T10:33:12.472Z,23.43
2018-01-20T10:35:42.932Z,23.40
2018-01-20T10:38:14.225Z,23.77
2018-01-20T10:40:45.524Z,24.40
2018-01-20T10:43:16.154Z,24.33
2018-01-20T10:45:46.753Z,23.63
2018-01-20T10:48:17.572Z,23.53
2018-01-20T10:50:48.902Z,24.20
2018-01-20T10:53:19.347Z,23.87
2018-01-20T10:55:49.826Z,24.00
2018-01-20T10:58:20.597Z,25.23
2018-01-20T11:00:52.105Z,24.33
2018-01-20T11:03:22.689Z,24.70
2018-01-20T11:05:54.186Z,24.50
2018-01-20T11:08:24.762Z,25.10
2018-01-20T11:10:55.433Z,24.80
2018-01-20T11:13:27.871Z,24.43
2018-01-20T11:15:58.407Z,24.97
2018-01-20T11:18:29.625Z,24.87
2018-01-20T11:21:00.049Z,24.10
2018-01-20T11:23:30.379Z,23.47
2018-01-20T11:26:01.664Z,22.67
2018-01-20T11:28:32.262Z,22.97
2018-01-20T11:31:02.533Z,24.40
2018-01-20T11:33:33.621Z,23.80
2018-01-20T11:36:03.887Z,23.87
2018-01-20T11:38:35.820Z,24.13
2018-01-20T11:41:06.857Z,23.93
2018-01-20T11:43:37.285Z,25.23
2018-01-20T11:46:07.464Z,23.37
2018-01-20T11:48:37.759Z,23.57
2018-01-20T11:51:08.369Z,24.17
2018-01-20T11:53:38.978Z,24.90
2018-01-20T11:56:10.210Z,22.57
2018-01-20T11:58:41.726Z,24.93
2018-01-20T12:01:12.869Z,24.80
2018-01-20T12:03:43.646Z,25.53
2018-01-20T12:06:14.231Z,25.77
2018-01-20T12:08:44.657Z,26.70
2018-01-20T12:11:15.091Z,24.23
2018-01-20T12:13:45.443Z,26.87
2018-01-20T12:16:15.908Z,26.17
2018-01-20T12:18:46.979Z,26.53
2018-01-20T12:21:17.351Z,26.00
2018-01-20T12:27:11.212Z,26.07
2018-01-20T12:29:41.878Z,27.67
2018-01-20T12:32:12.263Z,26.20
2018-01-20T12:34:42.815Z,26.50
2018-01-20T12:37:13.531Z,26.93
2018-01-20T12:39:44.056Z,26.50
2018-01-20T12:42:14.437Z,25.77
2018-01-20T12:44:45.113Z,26.70
2018-01-20T12:47:15.356Z,26.50
2018-01-20T12:49:45.706Z,25.93
2018-01-20T12:52:17.249Z,26.83
2018-01-20T12:54:47.526Z,26.93
2018-01-20T12:57:20.808Z,26.17
2018-01-20T12:59:51.344Z,24.77
2018-01-20T13:02:21.700Z,27.13
2018-01-20T13:04:52.174Z,24.00
2018-01-20T13:07:23.131Z,27.87
2018-01-20T13:09:54.089Z,26.63
2018-01-20T13:12:25.477Z,27.03
2018-01-20T13:14:56.513Z,28.17
2018-01-20T13:17:27.525Z,27.43
2018-01-20T13:19:58.117Z,27.80
2018-01-20T13:22:28.529Z,28.63
2018-01-20T13:24:59.583Z,26.97
2018-01-20T13:27:30.124Z,26.03
2018-01-20T13:30:00.363Z,25.60
2018-01-20T13:32:32.669Z,25.37
2018-01-20T13:35:03.150Z,25.93
2018-01-20T13:37:33.384Z,25.17
2018-01-20T13:40:10.148Z,27.13
2018-01-20T13:42:41.759Z,26.57
2018-01-20T13:45:17.110Z,26.97
2018-01-20T13:47:47.429Z,25.33
2018-01-20T13:50:17.993Z,25.90
2018-01-20T13:52:48.358Z,26.37
2018-01-20T13:55:18.681Z,26.00
2018-01-20T13:57:49.046Z,25.67
2018-01-20T14:00:19.556Z,28.80
2018-01-20T14:02:50.035Z,28.73
2018-01-20T14:05:20.655Z,28.13
2018-01-20T14:07:52.818Z,29.10
2018-01-20T14:10:24.494Z,27.77
2018-01-20T14:12:55.453Z,28.80
2018-01-20T14:15:27.090Z,28.57
2018-01-20T14:17:58.849Z,26.77
2018-01-20T14:20:30.305Z,27.63
2018-01-20T14:23:00.746Z,27.80
2018-01-20T14:25:40.284Z,27.83
2018-01-20T14:28:11.011Z,28.00
2018-01-20T14:30:41.510Z,28.53
2018-01-20T14:33:11.841Z,29.83
2018-01-20T14:35:42.174Z,29.17
2018-01-20T14:38:12.897Z,30.20
2018-01-20T14:40:43.477Z,28.93
2018-01-20T14:43:13.777Z,28.93
2018-01-20T14:45:46.147Z,28.77
2018-01-20T14:48:17.621Z,29.97
2018-01-20T14:50:48.801Z,30.80
2018-01-20T14:53:19.251Z,30.67
2018-01-20T14:55:50.704Z,30.07
2018-01-20T14:58:21.208Z,30.07
2018-01-20T15:00:51.616Z,30.47
2018-01-20T15:03:22.018Z,29.93
2018-01-20T15:05:52.572Z,29.77
2018-01-20T15:08:22.898Z,29.73
2018-01-20T15:10:57.561Z,29.60
2018-01-20T15:13:28.658Z,28.27
2018-01-20T15:16:01.623Z,30.27
2018-01-20T15:18:32.702Z,28.80
2018-01-20T15:21:03.132Z,30.67
2018-01-20T15:23:33.492Z,31.00
2018-01-20T15:26:07.880Z,31.63
2018-01-20T15:28:38.457Z,30.10
2018-01-20T15:31:09.165Z,30.60
2018-01-20T15:33:39.865Z,29.93
2018-01-20T15:36:13.787Z,32.07
2018-01-20T15:38:47.372Z,31.43
2018-01-20T15:41:18.052Z,29.80
2018-01-20T15:43:58.525Z,30.43
2018-01-20T15:46:37.002Z,29.00
2018-01-20T15:49:13.883Z,31.00
2018-01-20T15:51:47.026Z,30.77
2018-01-20T15:54:19.504Z,30.87
2018-01-20T15:56:52.604Z,31.77
2018-01-20T15:59:24.880Z,30.77
2018-01-20T16:01:55.514Z,31.33
2018-01-20T16:04:26.832Z,31.43
2018-01-20T16:06:57.381Z,31.83
2018-01-20T16:09:27.844Z,31.13
2018-01-20T16:11:59.856Z,32.73
2018-01-20T16:14:30.435Z,34.40
2018-01-20T16:17:00.995Z,33.17
2018-01-20T16:19:32.010Z,33.40
2018-01-20T16:22:03.279Z,32.30
2018-01-20T16:24:33.633Z,32.70
2018-01-20T16:27:04.485Z,51.37
2018-01-20T16:29:35.986Z,38.03
2018-01-20T16:32:11.068Z,37.43
2018-01-20T16:34:45.120Z,39.40
2018-01-20T16:37:16.120Z,34.17
2018-01-20T16:39:46.744Z,36.53
2018-01-20T16:42:17.621Z,35.03
2018-01-20T16:44:49.230Z,37.70
2018-01-20T16:47:21.076Z,44.30
2018-01-20T16:49:52.382Z,37.27
2018-01-20T16:52:24.055Z,38.30
2018-01-20T16:54:58.443Z,38.90
2018-01-20T16:57:28.818Z,36.50
2018-01-20T16:59:59.950Z,35.60
2018-01-20T17:02:30.347Z,37.20
2018-01-20T17:05:00.664Z,36.10
2018-01-20T17:07:31.158Z,35.77
2018-01-20T17:10:01.653Z,35.00
2018-01-20T17:12:31.950Z,34.07
2018-01-20T17:15:02.424Z,35.00
2018-01-20T17:17:32.755Z,33.80
2018-01-20T17:20:03.012Z,33.93
2018-01-20T17:22:34.229Z,33.83
2018-01-20T17:25:04.392Z,34.60
2018-01-20T17:27:34.977Z,35.00
2018-01-20T17:30:05.206Z,34.17
2018-01-20T17:32:36.140Z,33.17
2018-01-20T17:35:06.661Z,33.77
2018-01-20T17:37:36.920Z,33.90
2018-01-20T17:40:07.199Z,36.30
2018-01-20T17:42:37.817Z,35.13
2018-01-20T17:45:10.000Z,34.80
2018-01-20T17:47:40.339Z,34.50
2018-01-20T17:50:10.802Z,34.17
2018-01-20T17:52:41.044Z,32.80
2018-01-20T17:55:11.440Z,33.40
2018-01-20T17:57:41.989Z,33.07
2018-01-20T18:00:12.998Z,31.23
2018-01-20T18:02:43.196Z,33.20
2018-01-20T18:05:13.354Z,30.00
2018-01-20T18:07:43.534Z,28.97
2018-01-20T18:10:13.734Z,32.20
2018-01-20T18:12:44.143Z,32.93
2018-01-20T18:15:14.353Z,33.30
2018-01-20T18:17:44.525Z,29.80
2018-01-20T18:20:14.998Z,33.60
2018-01-20T18:22:45.249Z,31.83
2018-01-20T18:25:15.385Z,32.93
2018-01-20T18:27:45.843Z,30.80
2018-01-20T18:30:16.839Z,33.63
2018-01-20T18:32:47.471Z,32.33
2018-01-20T18:35:17.729Z,31.63
2018-01-20T18:37:47.994Z,31.70
2018-01-20T18:40:18.177Z,32.93
2018-01-20T18:42:48.852Z,33.03
2018-01-20T18:45:19.046Z,30.77
2018-01-20T18:47:49.249Z,32.67
2018-01-20T18:50:19.737Z,34.30
2018-01-20T18:52:49.990Z,37.70
2018-01-20T18:55:20.945Z,37.20
2018-01-20T18:57:51.084Z,34.53
2018-01-20T19:00:22.066Z,34.77
2018-01-20T19:02:53.363Z,35.07
2018-01-20T19:05:23.572Z,34.63
2018-01-20T19:07:53.750Z,35.30
2018-01-20T19:10:25.023Z,35.80
2018-01-20T19:12:55.373Z,36.30
2018-01-20T19:15:25.672Z,36.30
2018-01-20T19:17:56.245Z,37.33
2018-01-20T19:20:26.549Z,35.63
2018-01-20T19:24:11.096Z,35.50
2018-01-20T19:26:41.342Z,36.47
2018-01-20T19:29:12.726Z,37.90
2018-01-20T19:31:43.653Z,35.33
2018-01-20T19:34:13.988Z,35.27
2018-01-20T19:36:45.290Z,40.93
2018-01-20T19:39:15.497Z,40.50
2018-01-20T19:41:45.641Z,39.57
2018-01-20T19:44:15.804Z,37.97
2018-01-20T19:46:46.749Z,36.90
2018-01-20T19:49:18.085Z,39.87
2018-01-20T19:51:49.052Z,39.55
2018-01-20T19:54:19.309Z,38.50
2018-01-20T19:56:49.470Z,38.90
2018-01-20T19:59:20.522Z,42.53
2018-01-20T20:01:50.897Z,41.37
2018-01-20T20:04:21.486Z,48.27
2018-01-20T20:06:51.832Z,41.95
2018-01-20T20:09:26.001Z,40.73
2018-01-20T20:11:56.628Z,39.17
2018-01-20T20:14:26.786Z,37.08
2018-01-20T20:16:56.971Z,36.78
2018-01-20T20:19:27.605Z,36.83
2018-01-20T20:21:57.797Z,36.95
2018-01-20T20:24:28.093Z,37.95
2018-01-20T20:26:59.003Z,37.60
2018-01-20T20:29:29.165Z,36.30
2018-01-20T20:31:59.410Z,37.13
2018-01-20T20:34:30.698Z,40.10
2018-01-20T20:37:00.873Z,38.10
2018-01-20T20:39:32.741Z,37.77
2018-01-20T20:42:03.825Z,38.28
2018-01-20T20:44:34.144Z,37.80
2018-01-20T20:47:04.423Z,39.30
2018-01-20T20:49:35.696Z,40.27
2018-01-20T20:52:06.049Z,37.97
2018-01-20T20:54:36.457Z,38.45
2018-01-20T20:57:07.084Z,41.72
2018-01-20T20:59:38.241Z,37.47
2018-01-20T21:02:09.181Z,42.30
2018-01-20T21:04:39.734Z,40.67
2018-01-20T21:07:09.965Z,43.60
2018-01-20T21:09:40.949Z,44.47
2018-01-20T21:12:11.249Z,40.53
2018-01-20T21:14:41.485Z,40.17
2018-01-20T21:17:12.524Z,37.40
2018-01-20T21:19:43.077Z,41.67
2018-01-20T21:22:13.460Z,41.67
2018-01-20T21:24:43.750Z,38.05
2018-01-20T21:27:14.351Z,38.80
2018-01-20T21:29:45.534Z,38.97
2018-01-20T21:32:15.833Z,40.05
2018-01-20T21:34:46.036Z,38.20
2018-01-20T21:37:16.246Z,36.03
2018-01-20T21:40:01.633Z,33.70
2018-01-20T21:42:32.912Z,35.90
2018-01-20T21:45:03.764Z,36.08
2018-01-20T21:47:34.876Z,35.60
2018-01-20T21:50:07.401Z,37.40
2018-01-20T21:52:38.042Z,35.67
2018-01-20T21:55:08.349Z,39.30
2018-01-20T21:57:38.954Z,37.53
2018-01-20T22:00:10.805Z,37.38
2018-01-20T22:02:41.189Z,37.77
2018-01-20T22:05:11.821Z,39.57
2018-01-20T22:07:42.406Z,38.33
2018-01-20T22:10:12.680Z,36.03
2018-01-20T22:12:43.260Z,37.40
2018-01-20T22:15:14.301Z,35.50
2018-01-20T22:17:44.956Z,37.97
2018-01-20T22:20:15.849Z,36.50
2018-01-20T22:22:46.109Z,38.77
2018-01-20T22:25:16.381Z,37.77
2018-01-20T22:27:46.892Z,37.60
2018-01-20T22:30:17.176Z,36.50
2018-01-20T22:32:47.385Z,37.90
2018-01-20T22:35:18.410Z,39.97
2018-01-20T22:37:49.446Z,40.80
2018-01-20T22:40:20.777Z,36.93
2018-01-20T22:42:53.625Z,39.80
2018-01-20T22:45:23.798Z,37.90
2018-01-20T22:47:54.770Z,38.50
2018-01-20T22:50:31.641Z,37.10
2018-01-20T22:53:05.270Z,37.22
2018-01-20T22:55:37.788Z,37.38
2018-01-20T22:58:08.591Z,35.17
2018-01-20T23:00:44.280Z,35.58
2018-01-20T23:03:25.241Z,36.20
2018-01-20T23:05:55.958Z,38.97
2018-01-20T23:08:26.413Z,40.92
2018-01-20T23:10:57.530Z,38.85
2018-01-20T23:13:28.794Z,39.47
2018-01-20T23:16:00.087Z,38.57
2018-01-20T23:18:30.338Z,36.92
2018-01-20T23:21:01.412Z,36.20
2018-01-20T23:23:32.092Z,36.47
2018-01-20T23:26:02.321Z,36.83
2018-01-20T23:28:32.548Z,37.73
2018-01-20T23:31:02.729Z,40.17
2018-01-20T23:33:33.005Z,38.10
2018-01-20T23:36:04.034Z,39.93
2018-01-20T23:38:34.667Z,39.90
2018-01-20T23:41:04.938Z,40.40
2018-01-20T23:43:35.240Z,43.33
2018-01-20T23:46:06.801Z,40.10
2018-01-20T23:48:36.991Z,40.90
2018-01-20T23:51:07.224Z,39.20
2018-01-20T23:53:37.958Z,41.83
2018-01-20T23:56:08.956Z,42.67
2018-01-20T23:58:39.193Z,40.30
